Time;durP1;ratioP1;P1;durP2;ratioP2;P2;SDS_P1;SDS_P2;PMS_P1;PMS_P2;Temp;Humidity;BMP_temperature;BMP_pressure;BME280_temperature;BME280_humidity;BME280_pressure;Samples;Min_cycle;Max_cycle;Signal;HPM_P1;HPM_P2
2023/07/01 07:01:45;;;;;;;0.40;0.40;;;17.70;99.90;20.30;100234.00;;;;6181874;22;2288183;-63
2023/07/01 07:04:34;;;;;;;0.50;0.50;;;17.60;99.90;20.20;100230.00;;;;6130358;23;20267;-63
2023/07/01 07:07:22;;;;;;;0.50;0.50;;;17.70;99.90;20.40;100228.00;;;;6155136;23;20581;-63
2023/07/01 07:10:08;;;;;;;0.70;0.70;;;17.80;99.90;20.90;100229.00;;;;6105562;23;20175;-63
2023/07/01 07:12:40;;;;;;;0.50;0.50;;;17.90;99.90;20.80;100219.00;;;;6154212;23;20164;-63
2023/07/01 07:15:13;;;;;;;0.50;0.50;;;18.00;99.90;21.40;100223.00;;;;6183285;22;20939;-63
2023/07/01 07:17:41;;;;;;;0.60;0.60;;;18.10;99.90;21.70;100211.00;;;;6278661;22;20505;-63
2023/07/01 07:20:14;;;;;;;0.50;0.50;;;18.60;99.90;21.50;100207.00;;;;6278634;22;20232;-63
2023/07/01 07:22:40;;;;;;;0.50;0.50;;;18.50;99.90;21.70;100194.00;;;;6278415;22;20173;-63
2023/07/01 07:25:06;;;;;;;0.70;0.70;;;18.60;99.90;21.00;100203.00;;;;6278604;22;20501;-63
2023/07/01 07:27:35;;;;;;;0.67;0.67;;;18.40;99.90;21.10;100208.00;;;;6278544;22;20242;-63
2023/07/01 07:30:04;;;;;;;0.67;0.67;;;18.30;99.90;20.60;100203.00;;;;6278119;22;20180;-63
2023/07/01 07:32:34;;;;;;;0.50;0.50;;;18.30;99.90;21.20;100204.00;;;;6276716;22;20460;-63
2023/07/01 07:35:03;;;;;;;0.63;0.63;;;18.30;99.90;21.30;100210.00;;;;6278555;22;20135;-63
2023/07/01 07:37:37;;;;;;;0.57;0.57;;;18.40;99.90;21.40;100204.00;;;;6278208;22;20147;-63
2023/07/01 07:40:07;;;;;;;0.90;0.90;;;18.50;99.90;21.70;100208.00;;;;6276728;22;20470;-63
2023/07/01 07:42:34;;;;;;;1.17;1.17;;;18.60;99.90;21.40;100203.00;;;;6278375;22;20169;-63
2023/07/01 07:45:05;;;;;;;0.60;0.60;;;18.60;99.90;21.80;100210.00;;;;6277011;22;20149;-63
2023/07/01 07:47:41;;;;;;;1.10;1.10;;;18.60;99.90;22.10;100210.00;;;;6278269;22;20479;-63
2023/07/01 07:50:12;;;;;;;0.80;0.80;;;18.80;99.90;22.80;100203.00;;;;6278010;22;20473;-63
2023/07/01 07:52:40;;;;;;;0.70;0.70;;;19.10;99.90;22.20;100197.00;;;;6277984;22;20581;-63
2023/07/01 07:55:06;;;;;;;0.70;0.70;;;19.20;99.90;21.70;100198.00;;;;6278262;22;20158;-63
2023/07/01 07:57:33;;;;;;;0.60;0.60;;;19.10;99.90;22.40;100206.00;;;;6278264;22;20151;-63
2023/07/01 08:00:00;;;;;;;1.03;1.03;;;19.10;99.90;21.80;100204.00;;;;6276340;22;20260;-63
2023/07/01 08:02:28;;;;;;;0.60;0.60;;;19.10;99.90;21.90;100202.00;;;;6278257;22;20213;-63
2023/07/01 08:04:59;;;;;;;0.80;0.80;;;19.00;99.90;21.40;100189.00;;;;6278629;22;20150;-63
2023/07/01 08:07:27;;;;;;;0.50;0.50;;;18.80;99.90;21.50;100213.00;;;;6277937;22;20140;-63
2023/07/01 08:10:02;;;;;;;0.90;0.90;;;18.70;99.90;21.10;100208.00;;;;6278289;22;20263;-63
2023/07/01 08:12:28;;;;;;;0.50;0.50;;;18.70;99.90;21.90;100208.00;;;;6276441;22;20181;-63
2023/07/01 08:15:03;;;;;;;0.67;0.67;;;18.90;99.90;21.70;100202.00;;;;6278258;22;20139;-63
2023/07/01 08:17:34;;;;;;;1.00;1.00;;;19.00;99.90;22.00;100208.00;;;;6277580;22;20146;-63
2023/07/01 08:20:04;;;;;;;2.33;0.60;;;19.00;99.90;21.70;100215.00;;;;6278158;22;20666;-63
2023/07/01 08:22:32;;;;;;;0.50;0.50;;;18.90;99.90;22.00;100211.00;;;;6277868;22;20216;-63
2023/07/01 08:24:59;;;;;;;1.07;0.97;;;19.00;99.90;20.20;100226.00;;;;6276639;22;20156;-63
2023/07/01 08:27:24;;;;;;;0.47;0.47;;;18.50;99.90;21.00;100229.00;;;;6277545;22;20457;-63
2023/07/01 08:29:52;;;;;;;1.17;1.13;;;18.40;99.90;21.20;100229.00;;;;6278081;22;20185;-63
2023/07/01 08:32:20;;;;;;;0.40;0.40;;;18.50;99.90;21.20;100240.00;;;;6278051;22;20172;-63
2023/07/01 08:34:49;;;;;;;0.63;0.63;;;18.40;99.90;21.00;100233.00;;;;6278143;22;20520;-63
2023/07/01 08:37:18;;;;;;;0.50;0.50;;;18.50;99.90;21.60;100230.00;;;;6275678;22;20158;-63
2023/07/01 08:39:48;;;;;;;0.40;0.40;;;18.70;99.90;21.20;100232.00;;;;6277987;22;20533;-63
2023/07/01 08:42:23;;;;;;;0.80;0.80;;;18.60;99.90;20.30;100209.00;;;;6276575;22;20401;-63
2023/07/01 08:44:51;;;;;;;0.40;0.40;;;18.30;99.90;20.60;100220.00;;;;6275138;22;20595;-63
2023/07/01 08:47:25;;;;;;;1.05;0.65;;;18.40;99.90;20.80;100239.00;;;;6276194;22;20154;-63
2023/07/01 08:49:57;;;;;;;0.90;0.90;;;18.40;99.90;21.20;100238.00;;;;6275995;22;20140;-63
2023/07/01 08:52:31;;;;;;;0.50;0.50;;;18.60;99.90;20.60;100233.00;;;;6276358;22;20145;-63
2023/07/01 08:54:58;;;;;;;0.40;0.40;;;18.40;99.90;21.70;100228.00;;;;6250623;22;20158;-63
2023/07/01 08:57:24;;;;;;;0.57;0.57;;;18.70;99.90;20.90;100242.00;;;;6275625;22;20153;-63
2023/07/01 09:00:14;;;;;;;0.40;0.40;;;18.50;99.90;21.50;100226.00;;;;6277357;22;20172;-63
2023/07/01 09:02:47;;;;;;;1.33;1.23;;;18.70;99.90;20.40;100238.00;;;;6277461;22;20213;-63
2023/07/01 09:05:22;;;;;;;0.40;0.40;;;18.50;99.90;20.40;100235.00;;;;6251347;22;20138;-63
2023/07/01 09:07:57;;;;;;;0.40;0.40;;;18.30;99.90;20.70;100255.00;;;;6277037;22;20157;-63
2023/07/01 09:10:26;;;;;;;0.70;0.70;;;18.30;99.90;20.10;100255.00;;;;6249753;22;20165;-63
2023/07/01 09:13:10;;;;;;;0.50;0.50;;;18.30;99.90;20.60;100249.00;;;;6277312;22;20161;-63
2023/07/01 09:15:47;;;;;;;0.60;0.60;;;18.30;99.90;20.40;100257.00;;;;6250836;22;20200;-63
2023/07/01 09:18:28;;;;;;;0.97;0.97;;;18.40;99.90;20.60;100249.00;;;;6250363;22;20159;-63
2023/07/01 09:20:56;;;;;;;0.60;0.60;;;18.30;99.90;21.40;100238.00;;;;6250198;22;20709;-63
2023/07/01 09:23:35;;;;;;;2.70;1.57;;;18.60;99.90;20.70;100242.00;;;;6277286;22;20167;-63
2023/07/01 09:26:17;;;;;;;0.30;0.30;;;18.60;99.90;21.10;100239.00;;;;6250316;22;20139;-63
2023/07/01 09:28:49;;;;;;;0.60;0.60;;;18.60;99.90;21.20;100238.00;;;;6277304;22;20146;-63
2023/07/01 09:31:19;;;;;;;1.67;0.90;;;18.60;99.90;20.80;100232.00;;;;6249703;22;20171;-63
2023/07/01 09:34:05;;;;;;;0.93;0.93;;;18.60;99.90;20.20;100244.00;;;;6249436;22;20239;-63
2023/07/01 09:36:34;;;;;;;0.70;0.70;;;18.40;99.90;20.30;100244.00;;;;6250421;22;20464;-63
2023/07/01 09:39:05;;;;;;;1.57;1.47;;;18.30;99.90;20.00;100247.00;;;;6277097;22;20147;-63
2023/07/01 09:41:33;;;;;;;0.67;0.67;;;18.30;99.90;20.10;100259.00;;;;6277219;22;20145;-63
2023/07/01 09:44:13;;;;;;;1.03;0.93;;;18.20;99.90;20.00;100257.00;;;;6277262;22;20142;-63
2023/07/01 09:46:46;;;;;;;0.50;0.50;;;18.10;99.90;20.30;100247.00;;;;6277144;22;20248;-63
2023/07/01 09:49:15;;;;;;;0.87;0.87;;;18.20;99.90;20.30;100260.00;;;;6250241;22;20248;-63
2023/07/01 09:51:51;;;;;;;0.80;0.77;;;18.20;99.90;20.20;100262.00;;;;6276690;22;20146;-63
2023/07/01 09:54:29;;;;;;;0.33;0.33;;;18.20;99.90;20.60;100257.00;;;;6277338;22;20200;-63
2023/07/01 09:56:59;;;;;;;1.37;1.27;;;18.30;99.90;20.30;100220.00;;;;6224711;22;20151;-63
2023/07/01 09:59:31;;;;;;;2.37;2.17;;;18.40;99.90;20.90;100235.00;;;;6249727;22;20496;-63
2023/07/01 10:02:17;;;;;;;4.73;1.80;;;18.60;99.90;20.60;100243.00;;;;6277070;22;20253;-64
2023/07/01 10:05:15;;;;;;;0.70;0.70;;;18.60;99.90;22.10;100231.00;;;;6276951;22;20194;-64
2023/07/01 10:08:05;;;;;;;3.08;1.52;;;19.10;99.90;21.00;100224.00;;;;6261986;22;20600;-64
2023/07/01 10:11:22;;;;;;;0.30;0.30;;;19.00;99.90;22.40;100222.00;;;;6153524;23;20190;-64
2023/07/01 10:14:09;;;;;;;0.60;0.60;;;19.30;99.90;21.70;100199.00;;;;6153201;23;20162;-64
2023/07/01 10:17:01;;;;;;;0.67;0.67;;;19.30;99.90;22.60;100201.00;;;;6275311;22;20148;-64
2023/07/01 10:19:39;;;;;;;1.25;0.98;;;19.50;99.90;21.80;100206.00;;;;6255157;22;20251;-64
2023/07/01 10:33:37;;;;;;;1.97;1.77;;;19.00;99.90;21.60;100258.00;;;;5110504;27;20511;-63
2023/07/01 10:36:07;;;;;;;7.50;4.53;;;19.40;99.90;21.10;100251.00;;;;5091170;28;20193;-63
2023/07/01 10:39:33;;;;;;;3.83;3.47;;;19.30;99.90;21.20;100240.00;;;;5072363;28;20577;-63
2023/07/01 10:41:59;;;;;;;2.77;1.90;;;19.30;99.90;20.90;100241.00;;;;5090586;28;20192;-63
2023/07/01 10:47:21;;;;;;;1.67;1.57;;;19.10;99.90;21.50;100221.00;;;;5104633;28;20198;-63
2023/07/01 10:50:10;;;;;;;2.03;1.92;;;19.30;99.90;21.80;100206.00;;;;5106306;28;20188;-63
2023/07/01 10:52:55;;;;;;;3.87;2.50;;;19.50;99.90;21.90;100220.00;;;;5081940;28;20258;-63
2023/07/01 10:55:48;;;;;;;3.92;3.15;;;19.60;99.90;22.00;100190.00;;;;5087538;28;20223;-62
2023/07/01 10:58:26;;;;;;;2.83;2.45;;;19.70;99.90;22.40;100205.00;;;;5089840;28;20180;-64
2023/07/01 11:01:03;;;;;;;2.70;1.77;;;20.00;99.90;22.20;100195.00;;;;5089918;28;20208;-64
2023/07/01 11:03:47;;;;;;;7.72;1.63;;;20.30;99.90;21.90;100202.00;;;;5090381;28;20192;-62
2023/07/01 11:06:19;;;;;;;1.92;1.40;;;20.40;99.90;21.50;100186.00;;;;5088992;28;20181;-62
2023/07/01 11:09:09;;;;;;;1.92;1.45;;;20.30;99.90;21.90;100202.00;;;;5082833;28;20207;-62
2023/07/01 11:11:39;;;;;;;2.00;1.85;;;20.30;99.90;22.20;100212.00;;;;5080935;28;20217;-62
2023/07/01 11:14:15;;;;;;;0.73;0.63;;;20.30;99.90;22.70;100207.00;;;;5089878;28;20192;-62
2023/07/01 11:16:53;;;;;;;2.05;1.27;;;20.30;99.90;21.70;100208.00;;;;5088569;28;20177;-62
2023/07/01 11:19:58;;;;;;;3.47;2.55;;;20.20;99.90;22.80;100202.00;;;;5089643;28;20177;-62
2023/07/01 11:23:11;;;;;;;2.08;1.42;;;20.60;99.90;23.10;100201.00;;;;5069023;28;20231;-62
2023/07/01 11:26:03;;;;;;;4.53;3.53;;;20.60;99.90;23.40;100193.00;;;;5086315;28;20180;-64
2023/07/01 11:29:16;;;;;;;2.20;2.10;;;21.10;99.90;24.70;100196.00;;;;5087816;28;20258;-62
2023/07/01 11:33:00;;;;;;;1.13;0.60;;;21.40;99.90;24.00;100188.00;;;;5070791;28;20220;-63
2023/07/01 11:36:15;;;;;;;3.92;1.15;;;21.80;99.90;23.90;100192.00;;;;5078826;28;20197;-63
2023/07/01 11:39:27;;;;;;;0.68;0.68;;;21.80;99.90;25.30;100199.00;;;;5069054;28;20185;-63
2023/07/01 11:42:02;;;;;;;0.50;0.50;;;22.20;99.90;25.50;100205.00;;;;5084760;28;20655;-63
2023/07/01 11:44:33;;;;;;;1.05;1.05;;;22.20;99.90;25.10;100207.00;;;;5077815;28;20177;-63
2023/07/01 11:47:19;;;;;;;1.23;0.93;;;22.10;99.90;24.90;100214.00;;;;5075674;28;20169;-63
2023/07/01 11:50:37;;;;;;;0.50;0.50;;;21.80;99.90;25.00;100217.00;;;;5075658;28;20198;-63
2023/07/01 11:53:44;;;;;;;1.05;1.02;;;21.60;99.90;23.20;100206.00;;;;5057869;28;20213;-63
2023/07/01 11:56:37;;;;;;;0.82;0.82;;;21.10;99.90;23.10;100217.00;;;;5073524;28;20197;-63
2023/07/01 11:59:12;;;;;;;2.05;1.40;;;20.40;99.90;22.10;100218.00;;;;5067388;28;20666;-63
2023/07/01 12:01:56;;;;;;;4.73;2.77;;;20.00;99.90;22.30;100243.00;;;;5075142;28;20643;-63
2023/07/01 12:04:47;;;;;;;0.30;0.30;;;19.90;99.90;23.60;100220.00;;;;5074215;28;20188;-63
2023/07/01 12:07:56;;;;;;;2.42;2.22;;;20.20;99.90;21.80;100243.00;;;;5073492;28;20205;-63
2023/07/01 12:10:54;;;;;;;1.43;0.63;;;19.80;99.90;22.80;100250.00;;;;5078092;28;20198;-63
2023/07/01 12:14:24;;;;;;;11.53;3.97;;;20.00;99.90;22.10;100249.00;;;;5065607;28;20247;-63
2023/07/01 12:18:14;;;;;;;3.13;2.83;;;20.00;99.90;22.90;100258.00;;;;5073783;28;20521;-63
2023/07/01 12:21:47;;;;;;;1.02;1.02;;;20.10;99.90;22.20;100249.00;;;;5058199;28;20185;-63
2023/07/01 12:24:36;;;;;;;1.05;1.02;;;20.00;99.90;22.40;100273.00;;;;5074346;28;20196;-63
2023/07/01 12:27:42;;;;;;;2.35;2.15;;;20.00;99.90;21.60;100270.00;;;;5064339;28;20274;-63
2023/07/01 12:31:06;;;;;;;2.60;2.40;;;19.70;99.90;21.00;100287.00;;;;5090184;28;20188;-62
2023/07/01 12:34:29;;;;;;;0.30;0.30;;;19.30;99.90;22.10;100281.00;;;;5066933;28;20205;-64
2023/07/01 12:37:35;;;;;;;0.40;0.40;;;19.40;99.90;22.10;100250.00;;;;5057076;28;20181;-63
2023/07/01 12:40:56;;;;;;;1.40;1.30;;;19.50;99.90;22.40;100264.00;;;;5044806;28;20228;-64
2023/07/01 12:43:46;;;;;;;4.80;4.40;;;19.90;99.90;21.80;100263.00;;;;5074543;28;20197;-63
2023/07/01 12:46:53;;;;;;;3.05;2.63;;;19.90;99.90;23.00;100271.00;;;;5064709;28;20599;-63
2023/07/01 12:50:17;;;;;;;2.05;1.73;;;20.30;99.90;23.20;100268.00;;;;5072341;28;20188;-63
2023/07/01 12:53:28;;;;;;;2.63;2.17;;;20.80;99.90;22.70;100265.00;;;;5061664;28;20217;-63
2023/07/01 12:56:40;;;;;;;4.05;3.08;;;20.50;99.90;22.90;100267.00;;;;5070304;28;20190;-63
2023/07/01 12:59:56;;;;;;;1.58;1.48;;;20.50;99.90;22.60;100260.00;;;;5072251;28;20177;-63
2023/07/01 13:03:07;;;;;;;2.50;1.98;;;20.70;99.90;22.40;100259.00;;;;5061674;28;20208;-63
2023/07/01 13:05:56;;;;;;;2.55;2.38;;;20.70;99.90;22.40;100265.00;;;;5075081;28;20182;-63
2023/07/01 13:09:06;;;;;;;3.78;2.83;;;20.40;99.90;22.80;100265.00;;;;5059346;28;20198;-63
2023/07/01 13:12:16;;;;;;;1.02;0.98;;;20.60;99.90;23.20;100264.00;;;;5070563;28;20551;-63
2023/07/01 13:19:05;;;;;;;1.92;0.95;;;20.80;99.90;22.30;100268.00;;;;5067890;28;20238;-63
2023/07/01 13:21:59;;;;;;;0.80;0.70;;;20.40;99.90;21.80;100264.00;;;;5054217;28;20282;-64
2023/07/01 13:24:48;;;;;;;0.88;0.88;;;20.30;99.90;23.10;100274.00;;;;5042024;28;20190;-64
2023/07/01 13:27:46;;;;;;;0.65;0.65;;;20.50;99.90;22.00;100284.00;;;;5072648;28;20216;-64
2023/07/01 13:30:47;;;;;;;0.30;0.30;;;20.40;99.90;23.60;100291.00;;;;5069194;28;20222;-64
2023/07/01 13:33:59;;;;;;;0.50;0.50;;;20.70;99.90;23.50;100297.00;;;;5072038;28;20258;-64
2023/07/01 13:37:10;;;;;;;1.25;1.15;;;20.70;99.90;23.10;100295.00;;;;5058273;28;20235;-64
2023/07/01 13:40:13;;;;;;;0.93;0.85;;;20.70;99.90;22.90;100284.00;;;;5055709;28;20558;-64
2023/07/01 13:43:14;;;;;;;0.75;0.75;;;20.70;99.90;24.20;100305.00;;;;5049951;28;20197;-64
2023/07/01 13:46:21;;;;;;;0.40;0.40;;;21.20;99.90;21.90;100287.00;;;;5066395;28;20267;-64
2023/07/01 13:49:17;;;;;;;1.90;1.23;;;20.60;99.90;21.40;100287.00;;;;5064729;28;20713;-63
2023/07/01 13:52:27;;;;;;;0.93;0.90;;;20.10;99.90;21.70;100297.00;;;;5066421;28;20380;-63
2023/07/01 13:55:28;;;;;;;0.38;0.38;;;20.10;99.90;21.80;100302.00;;;;5071504;28;20216;-64
2023/07/01 13:58:45;;;;;;;1.77;0.85;;;19.90;99.90;22.50;100303.00;;;;5073135;28;20557;-63
2023/07/01 14:01:39;;;;;;;2.33;1.55;;;19.90;99.90;22.10;100308.00;;;;5041972;28;20534;-64
2023/07/01 14:04:31;;;;;;;0.30;0.30;;;20.20;99.90;23.20;100314.00;;;;5011365;28;20646;-64
2023/07/01 14:07:09;;;;;;;0.57;0.57;;;20.50;99.90;23.00;100299.00;;;;5088144;28;20558;-64
2023/07/01 14:09:48;;;;;;;1.08;0.88;;;20.80;99.90;24.10;100307.00;;;;5073003;28;20219;-64
2023/07/01 14:12:37;;;;;;;0.10;0.10;;;21.10;99.90;24.40;100344.00;;;;5072176;28;20612;-64
2023/07/01 14:15:36;;;;;;;0.60;0.60;;;21.20;99.90;24.30;100349.00;;;;5071196;28;20252;-64
2023/07/01 14:18:35;;;;;;;1.05;0.95;;;21.50;99.90;23.60;100350.00;;;;5067520;28;20216;-64
2023/07/01 14:21:46;;;;;;;1.90;1.20;;;21.40;99.90;23.00;100336.00;;;;5063676;28;20194;-64
2023/07/01 14:24:38;;;;;;;2.28;1.55;;;21.10;99.90;22.60;100334.00;;;;5071532;28;20259;-63
2023/07/01 14:27:45;;;;;;;0.10;0.10;;;20.80;99.90;23.50;100335.00;;;;5068678;28;20189;-63
2023/07/01 14:30:47;;;;;;;0.63;0.63;;;20.80;99.90;23.70;100360.00;;;;5081273;28;20202;-64
2023/07/01 14:33:46;;;;;;;0.75;0.63;;;21.30;99.90;23.50;100352.00;;;;5075362;28;20260;-64
2023/07/01 14:36:57;;;;;;;0.25;0.25;;;21.20;99.90;23.70;100339.00;;;;5059651;28;20182;-64
2023/07/01 14:39:32;;;;;;;7.78;1.88;;;21.20;99.90;24.40;100339.00;;;;5060234;28;20185;-64
2023/07/01 14:42:34;;;;;;;0.85;0.85;;;21.30;99.90;25.10;100369.00;;;;5072963;28;20646;-64
2023/07/01 14:45:28;;;;;;;0.35;0.35;;;21.70;99.90;25.40;100368.00;;;;5069101;28;20201;-63
2023/07/01 14:48:37;;;;;;;2.25;1.58;;;22.10;99.90;24.40;100367.00;;;;5073324;28;20539;-64
2023/07/01 14:51:35;;;;;;;0.70;0.57;;;21.80;99.90;24.30;100373.00;;;;5065522;28;20258;-64
2023/07/01 14:54:24;;;;;;;3.97;1.73;;;21.50;99.90;24.50;100399.00;;;;5071641;28;20217;-64
2023/07/01 14:57:10;;;;;;;0.10;0.10;;;21.50;99.90;24.40;100394.00;;;;5072860;28;20185;-64
2023/07/01 14:59:59;;;;;;;0.10;0.10;;;21.50;99.90;25.30;100405.00;;;;5088482;28;20535;-63
2023/07/01 15:02:48;;;;;;;0.10;0.10;;;21.50;99.90;25.20;100406.00;;;;5063121;28;20198;-62
2023/07/01 15:05:26;;;;;;;0.43;0.43;;;21.50;99.90;24.90;100407.00;;;;5069462;28;20231;-64
2023/07/01 15:08:09;;;;;;;0.10;0.10;;;21.40;99.90;25.00;100415.00;;;;5084928;28;20189;-64
2023/07/01 15:10:46;;;;;;;0.40;0.40;;;21.30;99.90;24.70;100408.00;;;;5065926;28;20193;-64
2023/07/01 15:13:32;;;;;;;0.20;0.20;;;21.30;99.90;25.20;100410.00;;;;5069052;28;20205;-64
2023/07/01 15:16:21;;;;;;;0.10;0.10;;;21.30;99.90;24.90;100390.00;;;;5088127;28;20177;-64
2023/07/01 15:18:54;;;;;;;0.55;0.55;;;21.10;99.90;23.60;100347.00;;;;5073920;28;20185;-64
2023/07/01 15:21:44;;;;;;;0.63;0.63;;;20.70;99.90;23.60;100391.00;;;;5076335;28;20291;-64
2023/07/01 15:28:04;;;;;;;0.40;0.40;;;20.20;99.90;24.40;100397.00;;;;5012555;28;20250;-64
2023/07/01 15:31:10;;;;;;;1.43;0.23;;;20.50;99.90;22.30;100379.00;;;;5088607;28;20200;-64
2023/07/01 15:34:10;;;;;;;0.80;0.80;;;20.10;99.90;22.80;100388.00;;;;5073626;28;20217;-64
2023/07/01 15:37:11;;;;;;;1.27;1.20;;;20.10;99.90;22.30;100376.00;;;;5075850;28;20203;-63
2023/07/01 15:39:44;;;;;;;0.20;0.20;;;19.70;99.90;23.30;100375.00;;;;5074781;28;20213;-64
2023/07/01 15:42:24;;;;;;;1.42;0.93;;;20.00;99.90;22.60;100378.00;;;;5076328;28;20178;-64
2023/07/01 15:45:30;;;;;;;0.68;0.68;;;20.00;99.90;23.00;100383.00;;;;5075862;28;20174;-64
2023/07/01 15:48:28;;;;;;;0.80;0.80;;;20.40;99.90;23.20;100379.00;;;;5071931;28;20205;-63
2023/07/01 15:51:26;;;;;;;1.38;1.27;;;20.30;99.90;23.60;100396.00;;;;5083665;28;20193;-64
2023/07/01 15:54:32;;;;;;;1.25;1.10;;;20.60;99.90;21.90;100383.00;;;;5070489;28;20185;-63
2023/07/01 15:57:21;;;;;;;2.70;1.92;;;20.10;99.90;22.60;100379.00;;;;5085445;28;20681;-64
2023/07/01 16:00:11;;;;;;;0.50;0.50;;;20.10;99.90;22.80;100395.00;;;;5013648;28;20199;-64
2023/07/01 16:03:18;;;;;;;0.13;0.13;;;20.40;99.90;21.70;100375.00;;;;5073390;28;20217;-64
2023/07/01 16:06:24;;;;;;;0.20;0.20;;;20.10;99.90;23.40;100370.00;;;;5070348;28;20229;-63
2023/07/01 16:09:45;;;;;;;1.10;0.73;;;20.20;99.90;22.70;100391.00;;;;5075510;28;20270;-64
2023/07/01 16:12:39;;;;;;;1.27;1.02;;;20.30;99.90;22.00;100356.00;;;;5033148;28;20222;-64
2023/07/01 16:15:58;;;;;;;3.00;0.82;;;20.10;99.90;22.90;100391.00;;;;5029252;28;20305;-64
2023/07/01 16:22:18;;;;;;;0.55;0.50;;;20.20;99.90;22.40;100386.00;;;;5028780;28;20257;-64
2023/07/01 16:25:08;;;;;;;1.02;0.52;;;20.20;99.90;21.80;100384.00;;;;5010059;28;20190;-64
2023/07/01 16:27:48;;;;;;;1.45;1.00;;;20.00;99.90;22.00;100382.00;;;;5032681;28;20508;-63
2023/07/01 16:30:19;;;;;;;0.80;0.20;;;19.90;99.90;22.40;100389.00;;;;5027780;28;20190;-64
2023/07/01 16:33:08;;;;;;;0.43;0.43;;;19.80;99.90;22.50;100380.00;;;;5032564;28;20245;-64
2023/07/01 16:36:07;;;;;;;0.60;0.60;;;19.90;99.90;22.30;100359.00;;;;5065247;28;20202;-63
2023/07/01 16:39:09;;;;;;;0.77;0.77;;;19.90;99.90;22.00;100392.00;;;;5083117;28;20687;-64
2023/07/01 16:42:04;;;;;;;1.50;0.97;;;19.90;99.90;22.30;100397.00;;;;5062191;28;20184;-64
2023/07/01 16:45:12;;;;;;;0.88;0.75;;;19.80;99.90;22.10;100382.00;;;;5070600;28;20185;-63
2023/07/01 16:48:06;;;;;;;3.65;1.02;;;19.70;99.90;22.00;100398.00;;;;5083867;28;20188;-63
2023/07/01 16:51:15;;;;;;;1.75;1.35;;;19.80;99.90;22.10;100390.00;;;;5064642;28;20186;-64
2023/07/01 16:54:22;;;;;;;2.10;2.00;;;19.70;99.90;22.10;100392.00;;;;5073608;28;20183;-63
2023/07/01 16:57:11;;;;;;;0.30;0.30;;;19.80;99.90;22.30;100399.00;;;;5074420;28;20209;-64
2023/07/01 17:00:31;;;;;;;1.35;1.25;;;19.80;99.90;22.00;100402.00;;;;5073071;28;20195;-64
2023/07/01 17:03:41;;;;;;;2.30;0.73;;;19.70;99.90;22.40;100395.00;;;;5012166;28;20203;-64
2023/07/01 17:06:42;;;;;;;0.10;0.10;;;19.70;99.90;22.90;100410.00;;;;5012514;28;20199;-63
2023/07/01 17:09:51;;;;;;;0.45;0.45;;;20.00;99.90;22.50;100397.00;;;;5067521;28;20192;-64
2023/07/01 17:13:03;;;;;;;1.00;0.90;;;20.00;99.90;22.50;100399.00;;;;5007421;28;20223;-64
2023/07/01 17:16:12;;;;;;;0.30;0.30;;;19.90;99.90;22.70;100412.00;;;;5008533;28;20257;-64
2023/07/01 17:19:38;;;;;;;0.35;0.35;;;20.20;99.90;22.90;100397.00;;;;4999957;28;20255;-64
2023/07/01 17:22:29;;;;;;;0.32;0.32;;;19.90;99.90;23.90;100423.00;;;;4994255;28;20183;-64
2023/07/01 17:25:33;;;;;;;1.23;1.23;;;20.50;99.90;22.40;100387.00;;;;4995706;28;20203;-64
2023/07/01 17:28:59;;;;;;;1.58;1.25;;;20.20;99.90;22.10;100402.00;;;;5066202;28;20555;-64
2023/07/01 17:32:08;;;;;;;0.90;0.90;;;19.90;99.90;22.20;100400.00;;;;5071101;28;20189;-64
2023/07/01 17:38:19;;;;;;;4.57;1.23;;;20.10;99.90;22.60;100414.00;;;;5072012;28;20257;-64
2023/07/01 17:41:52;;;;;;;2.20;1.60;;;20.10;99.90;23.70;100428.00;;;;5070953;28;20241;-64
2023/07/01 17:45:07;;;;;;;0.30;0.30;;;20.30;99.90;23.00;100429.00;;;;5070713;28;20185;-64
2023/07/01 17:51:42;;;;;;;0.28;0.28;;;20.30;99.90;22.30;100427.00;;;;5043701;28;20598;-64
2023/07/01 17:54:34;;;;;;;0.50;0.50;;;20.10;99.90;24.00;100442.00;;;;5073277;28;20187;-64
2023/07/01 17:57:41;;;;;;;0.60;0.60;;;20.40;99.90;22.70;100430.00;;;;5011418;28;20199;-64
2023/07/01 18:00:30;;;;;;;0.28;0.28;;;20.30;99.90;22.40;100407.00;;;;5004976;28;20195;-64
2023/07/01 18:03:36;;;;;;;0.10;0.10;;;20.10;99.90;22.30;100431.00;;;;5011245;28;20195;-63
2023/07/01 18:06:45;;;;;;;1.27;1.07;;;20.10;99.90;23.30;100438.00;;;;4977676;28;20268;-63
2023/07/01 18:09:16;;;;;;;0.52;0.52;;;20.20;99.90;23.20;100450.00;;;;5050672;28;20224;-64
2023/07/01 18:12:14;;;;;;;0.80;0.68;;;20.30;99.90;23.40;100440.00;;;;5073362;28;20303;-64
2023/07/01 18:15:07;;;;;;;0.80;0.80;;;20.40;99.90;22.60;100408.00;;;;5069239;28;20287;-64
2023/07/01 18:18:04;;;;;;;0.68;0.68;;;20.20;99.90;22.80;100452.00;;;;5084049;28;20185;-64
2023/07/01 18:20:54;;;;;;;0.32;0.30;;;20.30;99.90;23.00;100454.00;;;;5086632;28;20185;-64
2023/07/01 18:24:04;;;;;;;0.45;0.45;;;20.20;99.90;23.80;100465.00;;;;5042147;28;20651;-64
2023/07/01 18:26:57;;;;;;;1.45;0.80;;;20.50;99.90;22.30;100447.00;;;;5070443;28;20195;-64
2023/07/01 18:29:49;;;;;;;0.65;0.65;;;20.10;99.90;22.10;100442.00;;;;5067753;28;20188;-64
2023/07/01 18:32:38;;;;;;;0.55;0.55;;;19.90;99.90;22.20;100451.00;;;;5088603;28;20209;-64
2023/07/01 18:35:44;;;;;;;0.60;0.40;;;19.70;99.90;22.00;100449.00;;;;5061496;28;20182;-64
2023/07/01 18:38:54;;;;;;;0.75;0.60;;;19.80;99.90;22.40;100469.00;;;;5069321;28;20662;-64
2023/07/01 18:41:36;;;;;;;1.67;1.05;;;19.80;99.90;22.20;100463.00;;;;5072912;28;20220;-64
2023/07/01 18:44:24;;;;;;;0.10;0.10;;;19.90;99.90;23.20;100482.00;;;;5072890;28;20189;-64
2023/07/01 18:47:30;;;;;;;1.52;1.45;;;20.00;99.90;23.10;100498.00;;;;5071615;28;20190;-64
2023/07/01 18:50:16;;;;;;;3.60;1.23;;;20.20;99.90;23.10;100488.00;;;;5079405;28;20197;-63
2023/07/01 18:53:18;;;;;;;2.67;1.20;;;20.10;99.90;23.20;100506.00;;;;5062422;28;20243;-64
2023/07/01 18:56:27;;;;;;;2.97;1.17;;;20.30;99.90;22.50;100495.00;;;;5074138;28;20177;-64
2023/07/01 18:59:21;;;;;;;0.93;0.63;;;20.10;99.90;22.90;100465.00;;;;5076361;28;20185;-64
2023/07/01 19:02:31;;;;;;;0.43;0.30;;;20.10;99.90;23.20;100510.00;;;;5066139;28;20280;-64
2023/07/01 19:05:29;;;;;;;1.27;1.23;;;20.30;99.90;22.50;100488.00;;;;5067085;28;20205;-63
2023/07/01 19:08:20;;;;;;;1.53;0.97;;;20.00;99.90;22.90;100511.00;;;;5075343;28;20723;-64
2023/07/01 19:11:11;;;;;;;1.67;0.70;;;20.00;99.90;22.80;100510.00;;;;5075103;28;20212;-63
2023/07/01 19:14:00;;;;;;;0.23;0.20;;;20.10;99.90;22.50;100502.00;;;;5034036;28;20315;-64
2023/07/01 19:16:48;;;;;;;0.63;0.53;;;19.90;99.90;22.90;100480.00;;;;4961999;28;20294;-63
2023/07/01 19:20:07;;;;;;;0.20;0.20;;;19.90;99.90;23.10;100526.00;;;;5018024;28;20249;-63
2023/07/01 19:23:16;;;;;;;0.83;0.73;;;20.00;99.90;22.10;100520.00;;;;4953132;29;20216;-63
2023/07/01 19:26:14;;;;;;;2.77;1.93;;;19.70;99.90;22.10;100523.00;;;;4939632;29;20216;-63
2023/07/01 19:29:24;;;;;;;1.43;1.33;;;19.60;99.90;22.40;100525.00;;;;4978276;28;20262;-63
2023/07/01 19:32:21;;;;;;;2.13;1.93;;;19.50;99.90;22.00;100526.00;;;;4994148;28;20224;-64
2023/07/01 19:36:01;;;;;;;0.67;0.67;;;19.60;99.90;22.90;100534.00;;;;4994433;28;20673;-63
2023/07/01 19:39:12;;;;;;;2.37;0.70;;;19.60;99.90;22.10;100539.00;;;;4957306;28;20204;-63
2023/07/01 19:42:03;;;;;;;0.50;0.50;;;19.70;99.90;22.10;100538.00;;;;4994399;28;20194;-63
2023/07/01 19:45:10;;;;;;;0.60;0.50;;;19.40;99.90;21.70;100539.00;;;;4994563;28;20738;-63
2023/07/01 19:48:28;;;;;;;0.40;0.40;;;19.30;99.90;22.80;100547.00;;;;4976302;28;20243;-63
2023/07/01 19:51:21;;;;;;;3.03;2.10;;;19.30;99.90;22.60;100550.00;;;;4994246;28;20197;-63
2023/07/01 19:54:11;;;;;;;1.20;1.10;;;19.50;99.90;22.60;100542.00;;;;4987302;28;20203;-63
2023/07/01 19:57:20;;;;;;;1.00;0.73;;;19.50;99.90;21.70;100554.00;;;;4936017;29;20552;-63
2023/07/01 20:04:11;;;;;;;2.97;1.63;;;19.30;99.90;22.40;100569.00;;;;4945303;28;20199;-64
2023/07/01 20:07:24;;;;;;;0.47;0.47;;;19.60;99.90;22.10;100566.00;;;;4949147;28;20210;-63
2023/07/01 20:10:21;;;;;;;0.27;0.27;;;19.40;99.90;22.80;100580.00;;;;4945782;29;20226;-64